createdAt,value
2018-12-21T00:01:12.794Z,6.43
2018-12-21T00:03:41.802Z,9.50
2018-12-21T00:06:10.832Z,5.70
2018-12-21T00:08:39.793Z,7.60
2018-12-21T00:11:08.809Z,7.63
2018-12-21T00:13:37.837Z,7.47
2018-12-21T00:16:06.907Z,9.63
2018-12-21T00:18:35.959Z,5.30
2018-12-21T00:21:04.913Z,6.13
2018-12-21T00:23:34.285Z,5.00
2018-12-21T00:26:03.351Z,7.07
2018-12-21T00:28:32.618Z,8.90
2018-12-21T00:31:07.283Z,4.33
2018-12-21T00:33:41.858Z,5.90
2018-12-21T00:36:16.527Z,7.10
2018-12-21T00:38:51.518Z,6.60
2018-12-21T00:41:20.043Z,6.33
2018-12-21T00:44:57.317Z,6.07
2018-12-21T00:47:26.488Z,5.20
2018-12-21T00:49:56.036Z,6.37
2018-12-21T00:52:24.944Z,7.33
2018-12-21T00:54:53.880Z,5.67
2018-12-21T00:57:23.261Z,6.07
2018-12-21T00:59:52.384Z,5.53
2018-12-21T01:02:21.988Z,5.07
2018-12-21T01:04:51.201Z,7.47
2018-12-21T01:07:20.463Z,6.70
2018-12-21T01:09:49.683Z,6.47
2018-12-21T01:12:18.745Z,5.30
2018-12-21T01:14:47.738Z,7.03
2018-12-21T01:17:16.802Z,6.37
2018-12-21T01:19:45.881Z,5.23
2018-12-21T01:22:15.059Z,5.60
2018-12-21T01:24:44.048Z,8.40
2018-12-21T01:27:13.096Z,6.63
2018-12-21T01:29:42.129Z,6.77
2018-12-21T01:32:11.053Z,4.60
2018-12-21T01:34:40.124Z,8.03
2018-12-21T01:37:09.086Z,6.23
2018-12-21T01:39:38.052Z,8.87
2018-12-21T01:42:08.825Z,5.53
2018-12-21T01:44:38.060Z,6.73
2018-12-21T01:47:07.633Z,7.97
2018-12-21T01:49:36.624Z,11.40
2018-12-21T01:52:06.311Z,5.80
2018-12-21T01:54:35.424Z,5.53
2018-12-21T01:57:05.019Z,5.70
2018-12-21T01:59:34.571Z,6.63
2018-12-21T02:02:04.034Z,8.27
2018-12-21T02:04:33.044Z,6.03
2018-12-21T02:07:02.107Z,5.93
2018-12-21T02:09:31.258Z,4.97
2018-12-21T02:12:00.340Z,4.30
2018-12-21T02:14:29.309Z,7.60
2018-12-21T02:16:58.302Z,7.60
2018-12-21T02:19:30.372Z,6.50
2018-12-21T02:21:59.590Z,7.10
2018-12-21T02:24:28.568Z,6.87
2018-12-21T02:26:58.183Z,7.20
2018-12-21T02:29:28.059Z,6.43
2018-12-21T02:31:57.693Z,5.77
2018-12-21T02:34:26.912Z,7.73
2018-12-21T02:36:55.939Z,6.80
2018-12-21T02:39:25.056Z,6.43
2018-12-21T02:41:53.972Z,6.07
2018-12-21T02:44:23.528Z,5.17
2018-12-21T02:46:52.556Z,7.90
2018-12-21T02:49:21.731Z,5.87
2018-12-21T02:51:50.978Z,8.40
2018-12-21T02:54:20.036Z,5.80
2018-12-21T02:56:48.985Z,4.80
2018-12-21T02:59:18.399Z,4.93
2018-12-21T03:01:47.537Z,3.67
2018-12-21T03:04:17.270Z,5.57
2018-12-21T03:06:46.479Z,6.47
2018-12-21T03:09:15.585Z,5.37
2018-12-21T03:11:44.989Z,8.43
2018-12-21T03:14:14.133Z,5.73
2018-12-21T03:16:43.182Z,9.03
2018-12-21T03:19:12.377Z,4.57
2018-12-21T03:21:41.348Z,5.53
2018-12-21T03:24:10.687Z,4.80
2018-12-21T03:26:39.845Z,5.50
2018-12-21T03:29:09.096Z,6.37
2018-12-21T03:31:38.150Z,7.03
2018-12-21T03:34:07.277Z,7.80
2018-12-21T03:36:36.292Z,3.73
2018-12-21T03:39:07.690Z,5.50
2018-12-21T03:41:37.372Z,6.17
2018-12-21T03:44:06.298Z,6.90
2018-12-21T03:46:35.819Z,5.33
2018-12-21T03:49:04.959Z,4.73
2018-12-21T03:51:34.189Z,3.93
2018-12-21T03:54:03.170Z,5.33
2018-12-21T03:56:32.487Z,5.43
2018-12-21T03:59:01.495Z,4.80
2018-12-21T04:01:30.474Z,3.27
2018-12-21T04:03:59.520Z,6.50
2018-12-21T04:06:28.509Z,3.10
2018-12-21T04:08:57.735Z,3.67
2018-12-21T04:11:27.072Z,5.83
2018-12-21T04:13:56.039Z,2.80
2018-12-21T04:16:25.030Z,6.07
2018-12-21T04:18:54.242Z,3.00
2018-12-21T04:21:23.173Z,4.67
2018-12-21T04:23:52.418Z,5.17
2018-12-21T04:26:21.582Z,5.53
2018-12-21T04:28:50.612Z,4.63
2018-12-21T04:31:20.014Z,4.90
2018-12-21T04:33:48.988Z,3.40
2018-12-21T04:36:18.274Z,4.87
2018-12-21T04:38:47.566Z,3.70
2018-12-21T04:41:16.968Z,3.60
2018-12-21T04:43:46.029Z,5.40
2018-12-21T04:46:15.725Z,6.57
2018-12-21T04:48:44.899Z,3.77
2018-12-21T04:51:14.144Z,5.30
2018-12-21T04:53:43.382Z,4.73
2018-12-21T04:56:12.499Z,4.70
2018-12-21T04:58:41.573Z,5.40
2018-12-21T05:01:10.659Z,5.00
2018-12-21T05:03:39.691Z,6.73
2018-12-21T05:06:09.059Z,4.47
2018-12-21T05:08:37.966Z,6.77
2018-12-21T05:11:07.332Z,5.97
2018-12-21T05:13:36.308Z,7.30
2018-12-21T05:16:05.431Z,6.33
2018-12-21T05:18:34.667Z,5.83
2018-12-21T05:21:03.770Z,7.47
2018-12-21T05:23:35.132Z,7.27
2018-12-21T05:26:04.421Z,5.80
2018-12-21T05:28:34.266Z,7.50
2018-12-21T05:31:03.510Z,8.33
2018-12-21T05:33:32.623Z,5.80
2018-12-21T05:36:01.811Z,5.93
2018-12-21T05:38:30.870Z,5.50
2018-12-21T05:41:00.700Z,4.80
2018-12-21T05:43:29.878Z,5.13
2018-12-21T05:45:59.107Z,6.27
2018-12-21T05:48:28.263Z,11.93
2018-12-21T05:50:57.516Z,6.10
2018-12-21T05:53:26.602Z,6.67
2018-12-21T05:55:55.940Z,8.00
2018-12-21T05:58:25.320Z,6.07
2018-12-21T06:00:54.450Z,9.90
2018-12-21T06:03:23.488Z,9.73
2018-12-21T06:05:52.559Z,9.17
2018-12-21T06:08:21.874Z,8.20
2018-12-21T06:10:51.016Z,10.60
2018-12-21T06:13:20.097Z,9.23
2018-12-21T06:15:49.204Z,10.73
2018-12-21T06:18:19.609Z,12.70
2018-12-21T06:20:49.690Z,12.67
2018-12-21T06:23:18.769Z,9.63
2018-12-21T06:25:48.009Z,10.90
2018-12-21T06:28:16.990Z,13.27
2018-12-21T06:30:46.583Z,14.37
2018-12-21T06:33:15.747Z,16.03
2018-12-21T06:35:45.329Z,13.63
2018-12-21T06:38:14.732Z,10.63
2018-12-21T06:40:43.816Z,11.07
2018-12-21T06:43:13.227Z,11.00
2018-12-21T06:45:42.348Z,11.23
2018-12-21T06:48:12.986Z,11.80
2018-12-21T06:50:42.271Z,11.03
2018-12-21T06:53:17.925Z,12.83
2018-12-21T06:55:42.307Z,9.97
2018-12-21T06:58:12.145Z,12.40
2018-12-21T07:00:41.208Z,16.00
2018-12-21T07:03:17.224Z,10.60
2018-12-21T07:05:45.046Z,11.93
2018-12-21T07:08:15.751Z,10.77
2018-12-21T07:10:44.790Z,9.63
2018-12-21T07:13:14.459Z,9.97
2018-12-21T07:15:43.690Z,11.00
2018-12-21T07:18:13.073Z,9.10
2018-12-21T07:20:42.186Z,10.40
2018-12-21T07:23:11.148Z,9.70
2018-12-21T07:25:41.186Z,9.67
2018-12-21T07:28:10.508Z,12.40
2018-12-21T07:30:39.654Z,11.33
2018-12-21T07:33:08.756Z,11.13
2018-12-21T07:35:38.081Z,9.30
2018-12-21T07:38:08.043Z,10.00
2018-12-21T07:40:37.455Z,9.70
2018-12-21T07:43:06.598Z,10.57
2018-12-21T07:45:35.883Z,10.20
2018-12-21T07:48:05.074Z,8.73
2018-12-21T07:50:34.196Z,9.63
2018-12-21T07:53:03.541Z,9.13
2018-12-21T07:55:32.968Z,9.30
2018-12-21T07:58:02.323Z,10.37
2018-12-21T08:00:31.675Z,9.10
2018-12-21T08:03:01.161Z,9.50
2018-12-21T08:05:30.588Z,9.70
2018-12-21T08:07:59.962Z,9.23
2018-12-21T08:10:30.077Z,9.10
2018-12-21T08:12:59.565Z,11.43
2018-12-21T08:15:29.490Z,10.60
2018-12-21T08:17:58.910Z,10.60
2018-12-21T08:20:29.152Z,9.73
2018-12-21T08:22:58.537Z,9.00
2018-12-21T08:25:27.891Z,8.83
2018-12-21T08:27:56.970Z,7.80
2018-12-21T08:30:26.389Z,7.87
2018-12-21T08:32:56.071Z,7.60
2018-12-21T08:35:25.371Z,7.10
2018-12-21T08:37:55.126Z,7.83
2018-12-21T08:40:24.488Z,7.07
2018-12-21T08:42:54.026Z,6.77
2018-12-21T08:45:23.444Z,6.87
2018-12-21T08:47:52.810Z,6.83
2018-12-21T08:50:22.278Z,7.20
2018-12-21T08:52:51.267Z,6.97
2018-12-21T08:55:20.639Z,6.43
2018-12-21T08:57:49.951Z,5.43
2018-12-21T09:00:19.074Z,5.53
2018-12-21T09:02:48.281Z,6.20
2018-12-21T09:05:17.742Z,6.00
2018-12-21T09:07:47.145Z,6.17
2018-12-21T09:10:16.570Z,18.40
2018-12-21T09:12:45.789Z,6.17
2018-12-21T09:15:18.151Z,5.57
2018-12-21T09:17:48.225Z,6.07
2018-12-21T09:20:18.024Z,5.40
2018-12-21T09:22:47.251Z,5.60
2018-12-21T09:25:17.190Z,6.27
2018-12-21T09:27:46.617Z,5.83
2018-12-21T09:30:15.992Z,5.80
2018-12-21T09:32:45.241Z,6.10
2018-12-21T09:35:14.610Z,6.00
2018-12-21T09:37:44.049Z,5.20
2018-12-21T09:40:13.749Z,5.80
2018-12-21T09:42:43.054Z,5.27
2018-12-21T09:45:12.645Z,7.57
2018-12-21T09:47:42.735Z,5.90
2018-12-21T09:50:12.061Z,6.97
2018-12-21T09:52:41.359Z,5.87
2018-12-21T09:55:10.649Z,6.40
2018-12-21T09:57:40.091Z,7.50
2018-12-21T10:00:11.710Z,5.50
2018-12-21T10:02:41.645Z,5.80
2018-12-21T10:05:14.622Z,5.60
2018-12-21T10:07:44.256Z,5.50
2018-12-21T10:10:13.803Z,5.40
2018-12-21T10:12:43.755Z,3.93
2018-12-21T10:15:14.001Z,4.30
2018-12-21T10:17:43.401Z,3.97
2018-12-21T10:20:12.871Z,5.10
2018-12-21T10:22:41.938Z,3.93
2018-12-21T10:25:11.092Z,3.37
2018-12-21T10:27:40.908Z,4.30
2018-12-21T10:30:10.574Z,3.77
2018-12-21T10:32:40.013Z,3.73
2018-12-21T10:35:09.552Z,3.83
2018-12-21T10:37:39.158Z,3.80
2018-12-21T10:40:09.193Z,4.43
2018-12-21T10:42:38.549Z,3.77
2018-12-21T10:45:07.791Z,3.77
2018-12-21T10:47:37.333Z,3.80
2018-12-21T10:50:10.032Z,3.00
2018-12-21T10:52:39.295Z,3.50
2018-12-21T10:55:09.430Z,3.50
2018-12-21T10:57:38.710Z,3.40
2018-12-21T11:00:10.827Z,3.70
2018-12-21T11:02:39.975Z,3.70
2018-12-21T11:05:09.600Z,4.30
2018-12-21T11:07:38.919Z,6.17
2018-12-21T11:10:11.502Z,4.60
2018-12-21T11:12:40.940Z,3.50
2018-12-21T11:15:10.427Z,3.93
2018-12-21T11:17:39.741Z,4.00
2018-12-21T11:20:09.292Z,3.60
2018-12-21T11:22:38.955Z,3.53
2018-12-21T11:25:11.029Z,4.03
2018-12-21T11:27:40.391Z,3.40
2018-12-21T11:30:11.347Z,3.33
2018-12-21T11:32:41.033Z,3.30
2018-12-21T11:35:10.320Z,3.30
2018-12-21T11:37:39.695Z,3.30
2018-12-21T11:40:09.114Z,3.27
2018-12-21T11:42:38.336Z,3.87
2018-12-21T11:45:09.539Z,3.20
2018-12-21T11:47:38.760Z,7.47
2018-12-21T11:50:10.664Z,3.00
2018-12-21T11:52:40.218Z,3.63
2018-12-21T11:55:09.577Z,3.63
2018-12-21T11:57:39.019Z,2.63
2018-12-21T12:00:09.945Z,2.13
2018-12-21T12:02:39.238Z,2.60
2018-12-21T12:05:08.541Z,1.40
2018-12-21T12:07:39.037Z,1.83
2018-12-21T12:10:09.726Z,1.53
2018-12-21T12:12:39.555Z,1.77
2018-12-21T12:15:09.218Z,1.50
2018-12-21T12:17:39.526Z,1.50
2018-12-21T12:20:09.054Z,1.60
2018-12-21T12:22:38.772Z,1.50
2018-12-21T12:25:08.289Z,1.50
2018-12-21T12:27:38.697Z,2.10
2018-12-21T12:30:09.745Z,1.63
2018-12-21T12:32:39.090Z,1.50
2018-12-21T12:35:09.058Z,1.60
2018-12-21T12:37:38.467Z,1.67
2018-12-21T12:40:08.749Z,1.17
2018-12-21T12:42:38.127Z,1.30
2018-12-21T12:45:09.139Z,1.20
2018-12-21T12:47:38.439Z,1.40
2018-12-21T12:50:08.528Z,1.50
2018-12-21T12:52:38.087Z,1.30
2018-12-21T12:55:07.626Z,1.50
2018-12-21T12:57:42.059Z,1.17
2018-12-21T13:00:12.829Z,1.27
2018-12-21T13:02:42.416Z,1.07
2018-12-21T13:05:11.810Z,1.50
2018-12-21T13:07:41.349Z,1.20
2018-12-21T13:10:11.017Z,1.33
2018-12-21T13:12:40.382Z,1.30
2018-12-21T13:15:11.791Z,1.50
2018-12-21T13:17:41.368Z,1.50
2018-12-21T13:20:11.346Z,1.50
2018-12-21T13:22:40.524Z,2.00
2018-12-21T13:25:11.686Z,1.40
2018-12-21T13:27:47.113Z,1.47
2018-12-21T13:30:16.815Z,1.30
2018-12-21T13:32:46.895Z,1.20
2018-12-21T13:35:16.053Z,1.50
2018-12-21T13:37:45.465Z,1.50
2018-12-21T13:40:14.859Z,1.40
2018-12-21T13:42:44.764Z,1.50
2018-12-21T13:45:14.281Z,1.37
2018-12-21T13:47:44.004Z,1.03
2018-12-21T13:50:15.275Z,1.43
2018-12-21T13:52:44.601Z,1.30
2018-12-21T13:55:20.266Z,1.40
2018-12-21T13:57:45.540Z,1.13
2018-12-21T14:00:15.027Z,1.10
2018-12-21T14:02:44.396Z,1.90
2018-12-21T14:05:13.854Z,1.17
2018-12-21T14:07:43.961Z,1.20
2018-12-21T14:10:13.293Z,1.00
2018-12-21T14:12:42.581Z,1.10
2018-12-21T14:15:11.861Z,1.10
2018-12-21T14:17:40.887Z,1.40
2018-12-21T14:20:12.014Z,1.20
2018-12-21T14:22:41.164Z,1.10
2018-12-21T14:25:11.011Z,1.50
2018-12-21T14:27:40.441Z,1.80
2018-12-21T14:30:10.471Z,1.50
2018-12-21T14:32:39.805Z,1.70
2018-12-21T14:35:09.133Z,1.77
2018-12-21T14:37:38.291Z,1.90
2018-12-21T14:40:08.214Z,1.50
2018-12-21T14:42:38.198Z,1.00
2018-12-21T14:45:07.666Z,1.30
2018-12-21T14:47:37.395Z,1.50
2018-12-21T14:50:09.152Z,1.00
2018-12-21T14:52:38.934Z,1.33
2018-12-21T14:55:08.441Z,1.43
2018-12-21T14:57:38.026Z,1.63
2018-12-21T15:00:12.307Z,1.23
2018-12-21T15:02:42.511Z,2.00
2018-12-21T15:05:11.979Z,1.17
2018-12-21T15:07:41.288Z,1.10
2018-12-21T15:10:10.895Z,1.27
2018-12-21T15:12:39.949Z,1.43
2018-12-21T15:15:09.552Z,1.00
2018-12-21T15:17:38.846Z,1.20
2018-12-21T15:20:10.433Z,1.07
2018-12-21T15:22:41.418Z,1.30
2018-12-21T15:25:10.911Z,1.83
2018-12-21T15:27:40.037Z,1.30
2018-12-21T15:30:11.132Z,1.17
2018-12-21T15:32:40.552Z,0.90
2018-12-21T15:35:09.969Z,1.03
2018-12-21T15:37:39.299Z,1.03
2018-12-21T15:40:09.301Z,0.90
2018-12-21T15:42:39.208Z,1.37
2018-12-21T15:45:08.310Z,3.03
2018-12-21T15:47:37.324Z,2.20
2018-12-21T15:50:09.608Z,1.37
2018-12-21T15:52:39.035Z,1.20
2018-12-21T15:55:08.307Z,1.20
2018-12-21T15:57:37.475Z,1.00
2018-12-21T16:00:09.649Z,1.63
2018-12-21T16:02:38.752Z,1.20
2018-12-21T16:05:07.913Z,2.00
2018-12-21T16:07:37.082Z,1.00
2018-12-21T16:10:07.434Z,1.10
2018-12-21T16:12:36.785Z,1.10
2018-12-21T16:15:06.512Z,1.00
2018-12-21T16:17:35.672Z,1.57
2018-12-21T16:20:07.175Z,1.00
2018-12-21T16:22:42.336Z,1.10
2018-12-21T16:25:08.556Z,1.00
2018-12-21T16:27:37.757Z,1.00
2018-12-21T16:30:10.344Z,0.97
2018-12-21T16:32:39.657Z,1.07
2018-12-21T16:35:09.136Z,1.07
2018-12-21T16:37:38.875Z,1.97
2018-12-21T16:40:09.681Z,1.17
2018-12-21T16:42:39.035Z,1.30
2018-12-21T16:45:10.339Z,2.27
2018-12-21T16:47:40.159Z,1.43
2018-12-21T16:50:13.007Z,0.90
2018-12-21T16:52:42.245Z,2.30
2018-12-21T16:55:11.533Z,2.07
2018-12-21T16:57:40.746Z,1.27
2018-12-21T17:00:13.157Z,1.00
2018-12-21T17:02:42.594Z,1.53
2018-12-21T17:05:12.140Z,0.97
2018-12-21T17:07:41.449Z,1.60
2018-12-21T17:10:13.864Z,1.10
2018-12-21T17:12:43.414Z,1.27
2018-12-21T17:15:12.937Z,1.13
2018-12-21T17:18:45.001Z,1.40
2018-12-21T17:21:14.463Z,1.80
2018-12-21T17:23:43.569Z,2.03
2018-12-21T17:26:21.012Z,2.17
2018-12-21T17:28:44.852Z,1.73
2018-12-21T17:31:14.590Z,1.83
2018-12-21T17:33:44.382Z,1.30
2018-12-21T17:36:14.263Z,1.47
2018-12-21T17:38:43.328Z,1.90
2018-12-21T17:41:13.402Z,1.17
2018-12-21T17:43:42.587Z,1.40
2018-12-21T17:46:11.840Z,1.30
2018-12-21T17:48:41.200Z,1.00
2018-12-21T17:51:10.272Z,1.30
2018-12-21T17:53:39.686Z,1.10
2018-12-21T17:56:08.968Z,1.27
2018-12-21T17:58:38.637Z,1.43
2018-12-21T18:01:08.214Z,2.63
2018-12-21T18:03:55.600Z,1.50
2018-12-21T18:06:24.887Z,1.30
2018-12-21T18:08:54.557Z,2.10
2018-12-21T18:11:23.566Z,2.27
2018-12-21T18:13:52.881Z,2.17
2018-12-21T18:16:22.479Z,1.93
2018-12-21T18:18:51.909Z,1.50
2018-12-21T18:21:21.102Z,1.50
2018-12-21T18:23:50.395Z,1.60
2018-12-21T18:26:19.527Z,1.67
2018-12-21T18:28:48.628Z,1.60
2018-12-21T18:31:28.027Z,2.37
2018-12-21T18:33:58.362Z,1.80
2018-12-21T18:36:27.736Z,1.50
2018-12-21T18:38:56.994Z,1.50
2018-12-21T18:41:26.145Z,1.93
2018-12-21T18:43:55.417Z,1.47
2018-12-21T18:46:24.441Z,1.83
2018-12-21T18:48:53.646Z,1.50
2018-12-21T18:51:22.697Z,1.73
2018-12-21T18:53:52.068Z,2.13
2018-12-21T18:56:23.999Z,1.63
2018-12-21T18:58:52.912Z,1.70
2018-12-21T19:01:22.265Z,2.27
2018-12-21T19:03:51.416Z,2.70
2018-12-21T19:06:20.442Z,2.33
2018-12-21T19:08:49.936Z,2.03
2018-12-21T19:11:19.222Z,1.90
2018-12-21T19:13:48.871Z,2.90
2018-12-21T19:16:18.530Z,5.30
2018-12-21T19:18:47.871Z,3.40
2018-12-21T19:21:17.532Z,3.63
2018-12-21T19:23:46.780Z,2.80
2018-12-21T19:26:15.970Z,2.90
2018-12-21T19:28:45.791Z,6.00
2018-12-21T19:31:15.086Z,5.90
2018-12-21T19:33:45.162Z,7.53
2018-12-21T19:36:14.362Z,6.53
2018-12-21T19:38:43.662Z,4.50
2018-12-21T19:41:13.220Z,5.10
2018-12-21T19:43:42.148Z,6.63
2018-12-21T19:46:11.154Z,7.17
2018-12-21T19:48:40.309Z,11.07
2018-12-21T19:51:09.355Z,5.17
2018-12-21T19:53:39.197Z,6.20
2018-12-21T19:56:28.269Z,5.90
2018-12-21T19:58:57.368Z,5.37
2018-12-21T20:01:26.447Z,4.37
2018-12-21T20:03:55.775Z,6.73
2018-12-21T20:06:25.127Z,6.70
2018-12-21T20:08:54.800Z,6.60
2018-12-21T20:11:24.225Z,5.07
2018-12-21T20:13:53.497Z,6.40
2018-12-21T20:16:22.706Z,3.70
2018-12-21T20:18:52.064Z,6.73
2018-12-21T20:21:21.266Z,3.43
2018-12-21T20:23:50.496Z,6.27
2018-12-21T20:26:20.042Z,4.43
2018-12-21T20:28:50.352Z,6.90
2018-12-21T20:31:19.600Z,4.17
2018-12-21T20:33:49.271Z,6.70
2018-12-21T20:36:18.369Z,7.53
2018-12-21T20:38:48.195Z,6.70
2018-12-21T20:41:17.601Z,6.83
2018-12-21T20:43:46.949Z,10.37
2018-12-21T20:46:16.768Z,35.80
2018-12-21T20:48:46.063Z,24.53
2018-12-21T20:51:15.240Z,18.37
2018-12-21T20:53:46.249Z,6.80
2018-12-21T20:56:15.661Z,7.07
2018-12-21T20:58:53.706Z,6.17
2018-12-21T21:01:23.046Z,7.17
2018-12-21T21:03:52.152Z,6.60
2018-12-21T21:06:21.453Z,7.40
2018-12-21T21:08:50.812Z,7.57
2018-12-21T21:11:24.289Z,5.60
2018-12-21T21:13:54.541Z,5.27
2018-12-21T21:16:23.708Z,7.07
2018-12-21T21:18:53.059Z,7.13
2018-12-21T21:21:24.273Z,6.20
2018-12-21T21:23:53.436Z,5.63
2018-12-21T21:26:23.184Z,8.77
2018-12-21T21:28:52.192Z,10.97
2018-12-21T21:31:21.501Z,8.33
2018-12-21T21:33:50.744Z,10.07
2018-12-21T21:36:20.259Z,9.43
2018-12-21T21:38:49.312Z,9.30
2018-12-21T21:41:18.293Z,8.53
2018-12-21T21:43:47.464Z,7.17
2018-12-21T21:46:16.500Z,12.10
2018-12-21T21:48:45.719Z,8.13
2018-12-21T21:51:14.721Z,9.60
2018-12-21T21:53:43.781Z,10.37
2018-12-21T21:56:12.820Z,10.70
2018-12-21T21:58:42.108Z,8.13
2018-12-21T22:01:11.304Z,9.57
2018-12-21T22:03:40.345Z,12.73
2018-12-21T22:06:11.631Z,10.90
2018-12-21T22:08:40.757Z,7.60
2018-12-21T22:11:09.924Z,10.53
2018-12-21T22:13:39.468Z,12.57
2018-12-21T22:16:08.461Z,15.83
2018-12-21T22:18:37.995Z,10.30
2018-12-21T22:21:06.963Z,12.43
2018-12-21T22:23:36.257Z,9.83
2018-12-21T22:26:06.287Z,7.83
2018-12-21T22:28:36.095Z,9.00
2018-12-21T22:31:05.326Z,9.67
2018-12-21T22:33:34.256Z,13.67
2018-12-21T22:36:03.552Z,9.30
2018-12-21T22:38:33.036Z,10.03
2018-12-21T22:41:01.963Z,7.80
2018-12-21T22:43:31.710Z,12.97
2018-12-21T22:46:00.714Z,6.77
2018-12-21T22:48:29.770Z,11.43
2018-12-21T22:50:58.916Z,8.37
2018-12-21T22:53:27.946Z,11.73
2018-12-21T22:55:57.285Z,11.03
2018-12-21T22:58:26.404Z,9.03
2018-12-21T23:00:55.560Z,11.03
2018-12-21T23:03:24.717Z,8.53
2018-12-21T23:05:53.685Z,13.00
2018-12-21T23:08:22.786Z,9.97
2018-12-21T23:10:52.135Z,9.37
2018-12-21T23:13:23.939Z,10.23
2018-12-21T23:15:52.932Z,12.10
2018-12-21T23:18:21.895Z,12.47
2018-12-21T23:20:51.075Z,11.67
2018-12-21T23:23:20.327Z,10.90
2018-12-21T23:25:49.644Z,11.80
2018-12-21T23:28:18.936Z,13.00
2018-12-21T23:30:47.913Z,10.17
2018-12-21T23:33:16.943Z,13.33
2018-12-21T23:35:46.670Z,11.07
2018-12-21T23:38:16.282Z,14.43
2018-12-21T23:40:47.725Z,11.30
2018-12-21T23:43:17.105Z,10.37
2018-12-21T23:45:47.291Z,12.47
2018-12-21T23:48:16.312Z,16.87
2018-12-21T23:50:45.324Z,9.27
2018-12-21T23:53:14.631Z,10.20
2018-12-21T23:55:44.142Z,11.20
2018-12-21T23:58:13.785Z,12.23
